sensor_id;sensor_type;location;lat;lon;timestamp;P1;durP1;ratioP1;P2;durP2;ratioP2
22144;SDS011;11238;48.730;11.566;2023-07-16T00:01:39;6.70;;;3.42;;
22144;SDS011;11238;48.730;11.566;2023-07-16T00:04:05;4.43;;;3.33;;
22144;SDS011;11238;48.730;11.566;2023-07-16T00:06:31;5.43;;;3.67;;
22144;SDS011;11238;48.730;11.566;2023-07-16T00:08:57;6.50;;;3.55;;
22144;SDS011;11238;48.730;11.566;2023-07-16T00:11:23;8.90;;;3.58;;
22144;SDS011;11238;48.730;11.566;2023-07-16T00:13:48;4.63;;;3.45;;
22144;SDS011;11238;48.730;11.566;2023-07-16T00:16:14;5.78;;;3.63;;
22144;SDS011;11238;48.730;11.566;2023-07-16T00:18:46;4.53;;;3.72;;
22144;SDS011;11238;48.730;11.566;2023-07-16T00:21:12;4.65;;;3.53;;
22144;SDS011;11238;48.730;11.566;2023-07-16T00:23:38;5.70;;;3.47;;
22144;SDS011;11238;48.730;11.566;2023-07-16T00:26:04;5.68;;;3.50;;
22144;SDS011;11238;48.730;11.566;2023-07-16T00:28:30;4.20;;;3.50;;
22144;SDS011;11238;48.730;11.566;2023-07-16T00:30:55;5.70;;;3.90;;
22144;SDS011;11238;48.730;11.566;2023-07-16T00:33:21;7.38;;;3.60;;
22144;SDS011;11238;48.730;11.566;2023-07-16T00:35:47;7.97;;;3.70;;
22144;SDS011;11238;48.730;11.566;2023-07-16T00:38:14;4.20;;;3.20;;
22144;SDS011;11238;48.730;11.566;2023-07-16T00:40:42;5.03;;;3.60;;
22144;SDS011;11238;48.730;11.566;2023-07-16T00:43:09;5.32;;;3.95;;
22144;SDS011;11238;48.730;11.566;2023-07-16T00:45:34;5.47;;;3.67;;
22144;SDS011;11238;48.730;11.566;2023-07-16T00:48:01;6.47;;;3.70;;
22144;SDS011;11238;48.730;11.566;2023-07-16T00:50:27;10.32;;;4.32;;
22144;SDS011;11238;48.730;11.566;2023-07-16T00:52:54;4.22;;;3.72;;
22144;SDS011;11238;48.730;11.566;2023-07-16T00:55:19;6.70;;;4.07;;
22144;SDS011;11238;48.730;11.566;2023-07-16T00:57:45;6.38;;;3.80;;
22144;SDS011;11238;48.730;11.566;2023-07-16T01:00:12;6.07;;;3.88;;
22144;SDS011;11238;48.730;11.566;2023-07-16T01:02:38;7.28;;;4.00;;
22144;SDS011;11238;48.730;11.566;2023-07-16T01:05:04;6.53;;;4.30;;
22144;SDS011;11238;48.730;11.566;2023-07-16T01:07:31;10.45;;;4.00;;
22144;SDS011;11238;48.730;11.566;2023-07-16T01:09:57;5.93;;;3.75;;
22144;SDS011;11238;48.730;11.566;2023-07-16T01:12:23;5.13;;;3.70;;
22144;SDS011;11238;48.730;11.566;2023-07-16T01:14:52;5.97;;;3.90;;
22144;SDS011;11238;48.730;11.566;2023-07-16T01:17:18;5.93;;;4.25;;
22144;SDS011;11238;48.730;11.566;2023-07-16T01:19:44;8.80;;;3.67;;
22144;SDS011;11238;48.730;11.566;2023-07-16T01:30:30;8.15;;;5.05;;
22144;SDS011;11238;48.730;11.566;2023-07-16T01:32:56;6.75;;;4.40;;
22144;SDS011;11238;48.730;11.566;2023-07-16T01:35:23;9.35;;;4.63;;
22144;SDS011;11238;48.730;11.566;2023-07-16T01:37:49;7.25;;;4.57;;
22144;SDS011;11238;48.730;11.566;2023-07-16T01:40:15;8.38;;;5.13;;
22144;SDS011;11238;48.730;11.566;2023-07-16T01:42:41;7.63;;;4.80;;
22144;SDS011;11238;48.730;11.566;2023-07-16T01:45:09;9.40;;;4.80;;
22144;SDS011;11238;48.730;11.566;2023-07-16T01:50:24;10.90;;;5.10;;
22144;SDS011;11238;48.730;11.566;2023-07-16T01:52:50;6.18;;;4.45;;
22144;SDS011;11238;48.730;11.566;2023-07-16T01:55:16;6.07;;;4.45;;
22144;SDS011;11238;48.730;11.566;2023-07-16T01:58:04;6.15;;;4.30;;
22144;SDS011;11238;48.730;11.566;2023-07-16T02:00:30;4.75;;;3.85;;
22144;SDS011;11238;48.730;11.566;2023-07-16T02:02:56;9.15;;;3.72;;
22144;SDS011;11238;48.730;11.566;2023-07-16T02:05:22;4.78;;;3.88;;
22144;SDS011;11238;48.730;11.566;2023-07-16T02:07:48;6.22;;;4.10;;
22144;SDS011;11238;48.730;11.566;2023-07-16T02:10:14;6.10;;;3.55;;
22144;SDS011;11238;48.730;11.566;2023-07-16T02:12:40;8.15;;;4.10;;
22144;SDS011;11238;48.730;11.566;2023-07-16T02:15:06;7.03;;;3.92;;
22144;SDS011;11238;48.730;11.566;2023-07-16T02:17:35;8.07;;;3.95;;
22144;SDS011;11238;48.730;11.566;2023-07-16T02:20:01;8.52;;;4.10;;
22144;SDS011;11238;48.730;11.566;2023-07-16T02:22:30;7.22;;;4.00;;
22144;SDS011;11238;48.730;11.566;2023-07-16T02:24:56;6.47;;;4.28;;
22144;SDS011;11238;48.730;11.566;2023-07-16T02:27:21;5.00;;;3.95;;
22144;SDS011;11238;48.730;11.566;2023-07-16T02:29:47;7.43;;;4.00;;
22144;SDS011;11238;48.730;11.566;2023-07-16T02:32:14;5.07;;;3.83;;
22144;SDS011;11238;48.730;11.566;2023-07-16T02:34:40;6.85;;;4.15;;
22144;SDS011;11238;48.730;11.566;2023-07-16T02:37:06;6.90;;;4.93;;
22144;SDS011;11238;48.730;11.566;2023-07-16T02:39:32;8.60;;;4.90;;
22144;SDS011;11238;48.730;11.566;2023-07-16T02:41:58;10.05;;;4.10;;
22144;SDS011;11238;48.730;11.566;2023-07-16T02:44:23;9.80;;;4.35;;
22144;SDS011;11238;48.730;11.566;2023-07-16T02:46:49;7.53;;;4.13;;
22144;SDS011;11238;48.730;11.566;2023-07-16T02:49:16;8.13;;;4.40;;
22144;SDS011;11238;48.730;11.566;2023-07-16T02:51:45;5.88;;;3.92;;
22144;SDS011;11238;48.730;11.566;2023-07-16T02:54:11;8.13;;;4.47;;
22144;SDS011;11238;48.730;11.566;2023-07-16T02:56:36;8.90;;;5.03;;
22144;SDS011;11238;48.730;11.566;2023-07-16T02:59:02;5.90;;;4.38;;
22144;SDS011;11238;48.730;11.566;2023-07-16T03:01:28;9.43;;;4.18;;
22144;SDS011;11238;48.730;11.566;2023-07-16T03:03:54;6.07;;;4.20;;
22144;SDS011;11238;48.730;11.566;2023-07-16T03:06:22;8.50;;;4.05;;
22144;SDS011;11238;48.730;11.566;2023-07-16T03:08:49;5.68;;;3.75;;
22144;SDS011;11238;48.730;11.566;2023-07-16T03:11:17;6.45;;;4.20;;
22144;SDS011;11238;48.730;11.566;2023-07-16T03:13:43;9.77;;;4.13;;
22144;SDS011;11238;48.730;11.566;2023-07-16T03:16:09;5.80;;;3.97;;
22144;SDS011;11238;48.730;11.566;2023-07-16T03:18:35;7.82;;;4.22;;
22144;SDS011;11238;48.730;11.566;2023-07-16T03:21:01;5.40;;;3.92;;
22144;SDS011;11238;48.730;11.566;2023-07-16T03:23:27;6.35;;;3.85;;
22144;SDS011;11238;48.730;11.566;2023-07-16T03:25:53;6.35;;;3.97;;
22144;SDS011;11238;48.730;11.566;2023-07-16T03:28:19;7.55;;;4.45;;
22144;SDS011;11238;48.730;11.566;2023-07-16T03:30:46;4.50;;;3.35;;
22144;SDS011;11238;48.730;11.566;2023-07-16T03:33:13;7.88;;;4.00;;
22144;SDS011;11238;48.730;11.566;2023-07-16T03:35:41;6.07;;;3.67;;
22144;SDS011;11238;48.730;11.566;2023-07-16T03:38:11;6.47;;;3.75;;
22144;SDS011;11238;48.730;11.566;2023-07-16T03:40:38;6.50;;;3.80;;
22144;SDS011;11238;48.730;11.566;2023-07-16T03:43:06;3.72;;;3.30;;
22144;SDS011;11238;48.730;11.566;2023-07-16T03:45:32;6.32;;;3.30;;
22144;SDS011;11238;48.730;11.566;2023-07-16T03:47:58;8.18;;;3.47;;
22144;SDS011;11238;48.730;11.566;2023-07-16T03:50:24;3.58;;;3.22;;
22144;SDS011;11238;48.730;11.566;2023-07-16T03:52:50;5.65;;;3.70;;
22144;SDS011;11238;48.730;11.566;2023-07-16T03:55:16;5.22;;;3.50;;
22144;SDS011;11238;48.730;11.566;2023-07-16T03:57:42;5.22;;;3.33;;
22144;SDS011;11238;48.730;11.566;2023-07-16T04:00:08;5.05;;;3.78;;
22144;SDS011;11238;48.730;11.566;2023-07-16T04:02:46;7.30;;;3.88;;
22144;SDS011;11238;48.730;11.566;2023-07-16T04:05:16;4.80;;;3.70;;
22144;SDS011;11238;48.730;11.566;2023-07-16T04:07:42;5.47;;;3.53;;
22144;SDS011;11238;48.730;11.566;2023-07-16T04:10:08;7.93;;;4.07;;
22144;SDS011;11238;48.730;11.566;2023-07-16T04:12:33;4.97;;;3.17;;
22144;SDS011;11238;48.730;11.566;2023-07-16T04:14:59;4.00;;;3.22;;
22144;SDS011;11238;48.730;11.566;2023-07-16T04:17:26;5.05;;;2.90;;
22144;SDS011;11238;48.730;11.566;2023-07-16T04:19:51;5.78;;;3.20;;
22144;SDS011;11238;48.730;11.566;2023-07-16T04:22:17;6.05;;;3.28;;
22144;SDS011;11238;48.730;11.566;2023-07-16T04:24:43;4.55;;;2.70;;
22144;SDS011;11238;48.730;11.566;2023-07-16T04:27:09;5.50;;;3.13;;
22144;SDS011;11238;48.730;11.566;2023-07-16T04:29:35;7.30;;;3.10;;
22144;SDS011;11238;48.730;11.566;2023-07-16T04:32:01;3.53;;;2.35;;
22144;SDS011;11238;48.730;11.566;2023-07-16T04:34:27;3.72;;;2.55;;
22144;SDS011;11238;48.730;11.566;2023-07-16T04:36:53;5.55;;;2.50;;
22144;SDS011;11238;48.730;11.566;2023-07-16T04:39:19;3.72;;;2.45;;
22144;SDS011;11238;48.730;11.566;2023-07-16T04:41:45;3.67;;;2.20;;
22144;SDS011;11238;48.730;11.566;2023-07-16T04:44:11;3.80;;;2.20;;
22144;SDS011;11238;48.730;11.566;2023-07-16T04:46:37;7.80;;;2.30;;
22144;SDS011;11238;48.730;11.566;2023-07-16T04:49:02;7.28;;;2.22;;
22144;SDS011;11238;48.730;11.566;2023-07-16T04:51:29;3.25;;;1.80;;
22144;SDS011;11238;48.730;11.566;2023-07-16T04:53:55;2.38;;;1.85;;
22144;SDS011;11238;48.730;11.566;2023-07-16T04:56:21;3.90;;;1.88;;
22144;SDS011;11238;48.730;11.566;2023-07-16T04:58:47;2.72;;;1.65;;
22144;SDS011;11238;48.730;11.566;2023-07-16T05:01:13;3.75;;;1.70;;
22144;SDS011;11238;48.730;11.566;2023-07-16T05:03:39;2.78;;;1.73;;
22144;SDS011;11238;48.730;11.566;2023-07-16T05:06:05;2.67;;;1.88;;
22144;SDS011;11238;48.730;11.566;2023-07-16T05:08:33;3.28;;;1.85;;
22144;SDS011;11238;48.730;11.566;2023-07-16T05:11:00;2.38;;;1.70;;
22144;SDS011;11238;48.730;11.566;2023-07-16T05:13:26;5.43;;;1.88;;
22144;SDS011;11238;48.730;11.566;2023-07-16T05:15:52;1.92;;;1.60;;
22144;SDS011;11238;48.730;11.566;2023-07-16T05:18:19;2.25;;;1.67;;
22144;SDS011;11238;48.730;11.566;2023-07-16T05:20:48;7.40;;;2.10;;
22144;SDS011;11238;48.730;11.566;2023-07-16T05:23:14;7.63;;;1.98;;
22144;SDS011;11238;48.730;11.566;2023-07-16T05:25:45;4.30;;;1.77;;
22144;SDS011;11238;48.730;11.566;2023-07-16T05:28:15;1.90;;;1.70;;
22144;SDS011;11238;48.730;11.566;2023-07-16T05:30:41;2.08;;;1.88;;
22144;SDS011;11238;48.730;11.566;2023-07-16T05:33:06;3.20;;;1.60;;
22144;SDS011;11238;48.730;11.566;2023-07-16T05:35:32;2.53;;;1.70;;
22144;SDS011;11238;48.730;11.566;2023-07-16T05:37:58;2.75;;;1.80;;
22144;SDS011;11238;48.730;11.566;2023-07-16T05:40:24;4.72;;;1.98;;
22144;SDS011;11238;48.730;11.566;2023-07-16T05:42:50;3.53;;;1.67;;
22144;SDS011;11238;48.730;11.566;2023-07-16T05:45:16;1.90;;;1.70;;
22144;SDS011;11238;48.730;11.566;2023-07-16T05:47:42;1.70;;;1.60;;
22144;SDS011;11238;48.730;11.566;2023-07-16T05:50:08;2.00;;;1.60;;
22144;SDS011;11238;48.730;11.566;2023-07-16T05:52:33;3.20;;;1.92;;
22144;SDS011;11238;48.730;11.566;2023-07-16T05:54:59;3.78;;;1.70;;
22144;SDS011;11238;48.730;11.566;2023-07-16T05:57:25;1.85;;;1.50;;
22144;SDS011;11238;48.730;11.566;2023-07-16T05:59:51;7.47;;;1.60;;
22144;SDS011;11238;48.730;11.566;2023-07-16T06:02:17;6.97;;;1.98;;
22144;SDS011;11238;48.730;11.566;2023-07-16T06:04:46;6.07;;;2.03;;
22144;SDS011;11238;48.730;11.566;2023-07-16T06:07:12;5.38;;;1.77;;
22144;SDS011;11238;48.730;11.566;2023-07-16T06:10:00;4.57;;;1.60;;
22144;SDS011;11238;48.730;11.566;2023-07-16T06:12:28;3.00;;;1.60;;
22144;SDS011;11238;48.730;11.566;2023-07-16T06:14:53;4.45;;;1.83;;
22144;SDS011;11238;48.730;11.566;2023-07-16T06:17:19;4.78;;;1.83;;
22144;SDS011;11238;48.730;11.566;2023-07-16T06:19:45;2.67;;;2.08;;
22144;SDS011;11238;48.730;11.566;2023-07-16T06:22:13;3.97;;;2.20;;
22144;SDS011;11238;48.730;11.566;2023-07-16T06:24:39;2.90;;;1.63;;
22144;SDS011;11238;48.730;11.566;2023-07-16T06:27:05;3.45;;;2.00;;
22144;SDS011;11238;48.730;11.566;2023-07-16T06:29:31;3.83;;;1.90;;
22144;SDS011;11238;48.730;11.566;2023-07-16T06:31:58;2.35;;;1.90;;
22144;SDS011;11238;48.730;11.566;2023-07-16T06:34:25;1.70;;;1.60;;
22144;SDS011;11238;48.730;11.566;2023-07-16T06:36:51;2.50;;;2.00;;
22144;SDS011;11238;48.730;11.566;2023-07-16T06:39:17;2.60;;;1.60;;
22144;SDS011;11238;48.730;11.566;2023-07-16T06:41:43;2.45;;;1.90;;
22144;SDS011;11238;48.730;11.566;2023-07-16T06:44:09;1.73;;;1.60;;
22144;SDS011;11238;48.730;11.566;2023-07-16T06:46:35;1.80;;;1.60;;
22144;SDS011;11238;48.730;11.566;2023-07-16T06:49:01;1.60;;;1.50;;
22144;SDS011;11238;48.730;11.566;2023-07-16T06:51:27;2.65;;;1.70;;
22144;SDS011;11238;48.730;11.566;2023-07-16T06:53:55;2.33;;;1.60;;
22144;SDS011;11238;48.730;11.566;2023-07-16T06:56:21;3.90;;;1.50;;
22144;SDS011;11238;48.730;11.566;2023-07-16T06:58:46;2.42;;;1.30;;
22144;SDS011;11238;48.730;11.566;2023-07-16T07:01:15;2.42;;;1.52;;
22144;SDS011;11238;48.730;11.566;2023-07-16T07:03:41;4.28;;;1.58;;
22144;SDS011;11238;48.730;11.566;2023-07-16T07:06:07;2.95;;;1.50;;
22144;SDS011;11238;48.730;11.566;2023-07-16T07:08:36;2.90;;;1.60;;
22144;SDS011;11238;48.730;11.566;2023-07-16T07:11:03;3.03;;;1.27;;
22144;SDS011;11238;48.730;11.566;2023-07-16T07:13:29;2.03;;;1.27;;
22144;SDS011;11238;48.730;11.566;2023-07-16T07:15:56;4.88;;;1.38;;
22144;SDS011;11238;48.730;11.566;2023-07-16T07:18:22;2.75;;;1.33;;
22144;SDS011;11238;48.730;11.566;2023-07-16T07:20:48;2.30;;;1.40;;
22144;SDS011;11238;48.730;11.566;2023-07-16T07:23:15;1.70;;;1.30;;
22144;SDS011;11238;48.730;11.566;2023-07-16T07:25:41;2.70;;;1.30;;
22144;SDS011;11238;48.730;11.566;2023-07-16T07:28:07;1.77;;;1.00;;
22144;SDS011;11238;48.730;11.566;2023-07-16T07:30:33;3.65;;;1.90;;
22144;SDS011;11238;48.730;11.566;2023-07-16T07:32:58;9.15;;;1.60;;
22144;SDS011;11238;48.730;11.566;2023-07-16T07:35:25;4.72;;;2.00;;
22144;SDS011;11238;48.730;11.566;2023-07-16T07:37:51;4.88;;;1.75;;
22144;SDS011;11238;48.730;11.566;2023-07-16T07:40:17;2.92;;;1.60;;
22144;SDS011;11238;48.730;11.566;2023-07-16T07:42:42;3.88;;;1.80;;
22144;SDS011;11238;48.730;11.566;2023-07-16T07:45:08;3.58;;;1.60;;
22144;SDS011;11238;48.730;11.566;2023-07-16T07:47:35;5.18;;;1.90;;
22144;SDS011;11238;48.730;11.566;2023-07-16T07:50:00;6.03;;;2.17;;
22144;SDS011;11238;48.730;11.566;2023-07-16T07:52:27;3.97;;;1.83;;
22144;SDS011;11238;48.730;11.566;2023-07-16T07:54:53;3.70;;;1.73;;
22144;SDS011;11238;48.730;11.566;2023-07-16T07:57:19;4.35;;;1.83;;
22144;SDS011;11238;48.730;11.566;2023-07-16T07:59:46;6.95;;;2.00;;
22144;SDS011;11238;48.730;11.566;2023-07-16T08:02:12;5.32;;;1.70;;
22144;SDS011;11238;48.730;11.566;2023-07-16T08:04:38;6.32;;;1.88;;
22144;SDS011;11238;48.730;11.566;2023-07-16T08:07:04;5.38;;;2.15;;
22144;SDS011;11238;48.730;11.566;2023-07-16T08:09:30;5.72;;;2.05;;
22144;SDS011;11238;48.730;11.566;2023-07-16T08:11:56;4.65;;;1.92;;
22144;SDS011;11238;48.730;11.566;2023-07-16T08:14:22;5.25;;;2.10;;
22144;SDS011;11238;48.730;11.566;2023-07-16T08:16:48;5.25;;;1.80;;
22144;SDS011;11238;48.730;11.566;2023-07-16T08:19:32;5.07;;;2.10;;
22144;SDS011;11238;48.730;11.566;2023-07-16T08:22:08;3.97;;;1.88;;
22144;SDS011;11238;48.730;11.566;2023-07-16T08:25:37;4.75;;;1.90;;
22144;SDS011;11238;48.730;11.566;2023-07-16T08:28:09;3.65;;;2.33;;
22144;SDS011;11238;48.730;11.566;2023-07-16T08:31:22;2.78;;;2.00;;
22144;SDS011;11238;48.730;11.566;2023-07-16T08:33:47;3.17;;;1.60;;
22144;SDS011;11238;48.730;11.566;2023-07-16T08:36:13;3.45;;;1.83;;
22144;SDS011;11238;48.730;11.566;2023-07-16T08:38:41;3.50;;;1.77;;
22144;SDS011;11238;48.730;11.566;2023-07-16T08:41:07;2.08;;;1.60;;
22144;SDS011;11238;48.730;11.566;2023-07-16T08:43:33;2.60;;;1.60;;
22144;SDS011;11238;48.730;11.566;2023-07-16T08:46:00;2.65;;;1.77;;
22144;SDS011;11238;48.730;11.566;2023-07-16T08:48:28;1.75;;;1.40;;
22144;SDS011;11238;48.730;11.566;2023-07-16T08:50:54;2.35;;;1.50;;
22144;SDS011;11238;48.730;11.566;2023-07-16T08:53:23;4.60;;;1.70;;
22144;SDS011;11238;48.730;11.566;2023-07-16T08:55:49;1.83;;;1.50;;
22144;SDS011;11238;48.730;11.566;2023-07-16T08:58:15;3.10;;;1.63;;
22144;SDS011;11238;48.730;11.566;2023-07-16T09:00:44;2.63;;;1.55;;
22144;SDS011;11238;48.730;11.566;2023-07-16T09:03:13;2.40;;;1.52;;
22144;SDS011;11238;48.730;11.566;2023-07-16T09:05:46;3.20;;;1.55;;
22144;SDS011;11238;48.730;11.566;2023-07-16T09:08:12;2.20;;;1.55;;
22144;SDS011;11238;48.730;11.566;2023-07-16T09:10:39;2.42;;;1.73;;
22144;SDS011;11238;48.730;11.566;2023-07-16T09:13:08;2.17;;;1.70;;
22144;SDS011;11238;48.730;11.566;2023-07-16T09:15:44;2.85;;;1.70;;
22144;SDS011;11238;48.730;11.566;2023-07-16T09:18:19;3.17;;;1.58;;
22144;SDS011;11238;48.730;11.566;2023-07-16T09:23:30;3.67;;;1.63;;
22144;SDS011;11238;48.730;11.566;2023-07-16T09:25:59;2.90;;;1.45;;
22144;SDS011;11238;48.730;11.566;2023-07-16T09:28:25;1.60;;;1.50;;
22144;SDS011;11238;48.730;11.566;2023-07-16T09:30:51;2.42;;;2.00;;
22144;SDS011;11238;48.730;11.566;2023-07-16T09:33:18;2.90;;;1.77;;
22144;SDS011;11238;48.730;11.566;2023-07-16T09:35:47;2.92;;;1.50;;
22144;SDS011;11238;48.730;11.566;2023-07-16T09:38:14;3.40;;;1.80;;
22144;SDS011;11238;48.730;11.566;2023-07-16T09:40:41;2.00;;;1.80;;
22144;SDS011;11238;48.730;11.566;2023-07-16T09:43:10;2.10;;;1.75;;
22144;SDS011;11238;48.730;11.566;2023-07-16T09:45:37;2.00;;;1.80;;
22144;SDS011;11238;48.730;11.566;2023-07-16T09:48:03;2.50;;;1.60;;
22144;SDS011;11238;48.730;11.566;2023-07-16T09:50:31;2.70;;;1.70;;
22144;SDS011;11238;48.730;11.566;2023-07-16T09:53:01;1.95;;;1.70;;
22144;SDS011;11238;48.730;11.566;2023-07-16T09:55:30;3.90;;;1.50;;
22144;SDS011;11238;48.730;11.566;2023-07-16T09:58:02;2.75;;;1.40;;
22144;SDS011;11238;48.730;11.566;2023-07-16T10:00:32;4.40;;;1.65;;
22144;SDS011;11238;48.730;11.566;2023-07-16T10:03:00;2.50;;;1.73;;
22144;SDS011;11238;48.730;11.566;2023-07-16T10:05:26;2.75;;;1.50;;
22144;SDS011;11238;48.730;11.566;2023-07-16T10:07:55;2.03;;;1.52;;
22144;SDS011;11238;48.730;11.566;2023-07-16T10:10:25;2.45;;;1.63;;
22144;SDS011;11238;48.730;11.566;2023-07-16T10:13:03;2.08;;;1.45;;
22144;SDS011;11238;48.730;11.566;2023-07-16T10:15:29;5.55;;;2.38;;
22144;SDS011;11238;48.730;11.566;2023-07-16T10:17:56;4.65;;;1.70;;
22144;SDS011;11238;48.730;11.566;2023-07-16T10:20:35;3.78;;;1.80;;
22144;SDS011;11238;48.730;11.566;2023-07-16T10:23:11;22.30;;;7.03;;
22144;SDS011;11238;48.730;11.566;2023-07-16T10:25:38;4.32;;;2.10;;
22144;SDS011;11238;48.730;11.566;2023-07-16T10:28:04;18.50;;;4.90;;
22144;SDS011;11238;48.730;11.566;2023-07-16T10:30:31;6.88;;;2.60;;
22144;SDS011;11238;48.730;11.566;2023-07-16T10:32:58;12.95;;;4.03;;
22144;SDS011;11238;48.730;11.566;2023-07-16T10:35:26;26.65;;;6.40;;
22144;SDS011;11238;48.730;11.566;2023-07-16T10:37:51;5.65;;;2.53;;
22144;SDS011;11238;48.730;11.566;2023-07-16T10:40:19;4.82;;;2.20;;
22144;SDS011;11238;48.730;11.566;2023-07-16T10:42:45;14.55;;;5.22;;
22144;SDS011;11238;48.730;11.566;2023-07-16T10:45:14;7.40;;;3.10;;
22144;SDS011;11238;48.730;11.566;2023-07-16T10:47:51;6.20;;;2.35;;
22144;SDS011;11238;48.730;11.566;2023-07-16T10:50:19;3.35;;;1.80;;
22144;SDS011;11238;48.730;11.566;2023-07-16T10:52:46;3.13;;;1.58;;
22144;SDS011;11238;48.730;11.566;2023-07-16T10:55:19;4.28;;;2.17;;
22144;SDS011;11238;48.730;11.566;2023-07-16T10:57:46;9.85;;;2.67;;
22144;SDS011;11238;48.730;11.566;2023-07-16T11:00:14;5.22;;;2.20;;
22144;SDS011;11238;48.730;11.566;2023-07-16T11:02:42;8.52;;;3.42;;
22144;SDS011;11238;48.730;11.566;2023-07-16T11:05:09;2.83;;;1.55;;
22144;SDS011;11238;48.730;11.566;2023-07-16T11:07:36;2.28;;;1.48;;
22144;SDS011;11238;48.730;11.566;2023-07-16T11:10:02;5.20;;;2.05;;
22144;SDS011;11238;48.730;11.566;2023-07-16T11:12:29;4.18;;;1.85;;
22144;SDS011;11238;48.730;11.566;2023-07-16T11:14:55;4.05;;;2.10;;
22144;SDS011;11238;48.730;11.566;2023-07-16T11:17:23;4.57;;;2.67;;
22144;SDS011;11238;48.730;11.566;2023-07-16T11:19:53;3.17;;;1.50;;
22144;SDS011;11238;48.730;11.566;2023-07-16T11:22:19;3.25;;;1.90;;
22144;SDS011;11238;48.730;11.566;2023-07-16T11:24:50;4.00;;;1.95;;
22144;SDS011;11238;48.730;11.566;2023-07-16T11:27:18;4.32;;;1.65;;
22144;SDS011;11238;48.730;11.566;2023-07-16T11:29:46;3.90;;;1.85;;
22144;SDS011;11238;48.730;11.566;2023-07-16T11:32:14;2.08;;;1.73;;
22144;SDS011;11238;48.730;11.566;2023-07-16T11:34:55;3.55;;;1.70;;
22144;SDS011;11238;48.730;11.566;2023-07-16T11:37:21;3.53;;;1.80;;
22144;SDS011;11238;48.730;11.566;2023-07-16T11:39:49;3.67;;;1.83;;
22144;SDS011;11238;48.730;11.566;2023-07-16T11:42:22;3.00;;;1.52;;
22144;SDS011;11238;48.730;11.566;2023-07-16T11:44:55;2.25;;;1.60;;
22144;SDS011;11238;48.730;11.566;2023-07-16T11:47:21;2.63;;;1.63;;
22144;SDS011;11238;48.730;11.566;2023-07-16T11:49:48;1.58;;;1.40;;
22144;SDS011;11238;48.730;11.566;2023-07-16T11:52:14;2.97;;;1.73;;
22144;SDS011;11238;48.730;11.566;2023-07-16T11:54:43;2.47;;;1.73;;
22144;SDS011;11238;48.730;11.566;2023-07-16T11:57:09;3.20;;;1.67;;
22144;SDS011;11238;48.730;11.566;2023-07-16T11:59:35;2.08;;;1.33;;
22144;SDS011;11238;48.730;11.566;2023-07-16T12:02:01;2.95;;;1.65;;
22144;SDS011;11238;48.730;11.566;2023-07-16T12:04:28;4.32;;;1.80;;
22144;SDS011;11238;48.730;11.566;2023-07-16T12:06:54;3.38;;;1.50;;
22144;SDS011;11238;48.730;11.566;2023-07-16T12:09:20;1.80;;;1.40;;
22144;SDS011;11238;48.730;11.566;2023-07-16T12:11:46;2.38;;;1.40;;
22144;SDS011;11238;48.730;11.566;2023-07-16T12:14:12;3.17;;;1.60;;
22144;SDS011;11238;48.730;11.566;2023-07-16T12:16:38;2.95;;;1.58;;
22144;SDS011;11238;48.730;11.566;2023-07-16T12:19:05;3.15;;;1.65;;
22144;SDS011;11238;48.730;11.566;2023-07-16T12:21:32;3.38;;;1.30;;
22144;SDS011;11238;48.730;11.566;2023-07-16T12:23:58;5.95;;;2.00;;
22144;SDS011;11238;48.730;11.566;2023-07-16T12:26:24;2.15;;;1.63;;
22144;SDS011;11238;48.730;11.566;2023-07-16T12:28:49;4.13;;;1.58;;
22144;SDS011;11238;48.730;11.566;2023-07-16T12:31:15;4.22;;;1.55;;
22144;SDS011;11238;48.730;11.566;2023-07-16T12:36:37;2.67;;;1.92;;
22144;SDS011;11238;48.730;11.566;2023-07-16T12:39:03;4.00;;;1.50;;
22144;SDS011;11238;48.730;11.566;2023-07-16T12:41:29;3.40;;;1.73;;
22144;SDS011;11238;48.730;11.566;2023-07-16T12:43:57;5.70;;;1.55;;
22144;SDS011;11238;48.730;11.566;2023-07-16T12:46:24;4.60;;;1.73;;
22144;SDS011;11238;48.730;11.566;2023-07-16T12:48:50;2.78;;;1.70;;
22144;SDS011;11238;48.730;11.566;2023-07-16T12:51:15;2.10;;;1.50;;
22144;SDS011;11238;48.730;11.566;2023-07-16T12:53:41;3.28;;;1.80;;
22144;SDS011;11238;48.730;11.566;2023-07-16T12:56:08;2.53;;;1.67;;
22144;SDS011;11238;48.730;11.566;2023-07-16T12:58:34;1.98;;;1.50;;
22144;SDS011;11238;48.730;11.566;2023-07-16T13:01:01;2.92;;;1.70;;
22144;SDS011;11238;48.730;11.566;2023-07-16T13:03:28;3.35;;;1.85;;
22144;SDS011;11238;48.730;11.566;2023-07-16T13:05:57;2.47;;;1.58;;
22144;SDS011;11238;48.730;11.566;2023-07-16T13:08:22;3.08;;;1.55;;
22144;SDS011;11238;48.730;11.566;2023-07-16T13:10:49;2.47;;;1.70;;
22144;SDS011;11238;48.730;11.566;2023-07-16T13:13:18;2.22;;;1.60;;
22144;SDS011;11238;48.730;11.566;2023-07-16T13:15:44;2.13;;;1.60;;
22144;SDS011;11238;48.730;11.566;2023-07-16T13:18:10;1.63;;;1.50;;
22144;SDS011;11238;48.730;11.566;2023-07-16T13:20:36;2.70;;;1.60;;
22144;SDS011;11238;48.730;11.566;2023-07-16T13:23:02;2.30;;;1.70;;
22144;SDS011;11238;48.730;11.566;2023-07-16T13:25:29;3.45;;;1.77;;
22144;SDS011;11238;48.730;11.566;2023-07-16T13:27:55;2.10;;;1.60;;
22144;SDS011;11238;48.730;11.566;2023-07-16T13:30:24;2.35;;;1.45;;
22144;SDS011;11238;48.730;11.566;2023-07-16T13:32:51;3.47;;;1.60;;
22144;SDS011;11238;48.730;11.566;2023-07-16T13:35:20;4.03;;;1.75;;
22144;SDS011;11238;48.730;11.566;2023-07-16T13:37:47;3.22;;;1.42;;
22144;SDS011;11238;48.730;11.566;2023-07-16T13:40:13;2.25;;;1.60;;
22144;SDS011;11238;48.730;11.566;2023-07-16T13:42:42;2.22;;;1.70;;
22144;SDS011;11238;48.730;11.566;2023-07-16T13:45:08;5.72;;;1.70;;
22144;SDS011;11238;48.730;11.566;2023-07-16T13:47:34;4.18;;;1.60;;
22144;SDS011;11238;48.730;11.566;2023-07-16T13:50:00;2.22;;;1.25;;
22144;SDS011;11238;48.730;11.566;2023-07-16T13:52:26;2.85;;;1.60;;
22144;SDS011;11238;48.730;11.566;2023-07-16T13:54:52;2.20;;;1.50;;
22144;SDS011;11238;48.730;11.566;2023-07-16T13:57:18;3.03;;;1.60;;
22144;SDS011;11238;48.730;11.566;2023-07-16T13:59:44;2.20;;;1.52;;
22144;SDS011;11238;48.730;11.566;2023-07-16T14:02:10;2.47;;;1.33;;
22144;SDS011;11238;48.730;11.566;2023-07-16T14:04:36;3.58;;;1.50;;
22144;SDS011;11238;48.730;11.566;2023-07-16T14:07:03;2.72;;;1.42;;
22144;SDS011;11238;48.730;11.566;2023-07-16T14:09:28;2.92;;;1.70;;
22144;SDS011;11238;48.730;11.566;2023-07-16T14:11:54;1.67;;;1.25;;
22144;SDS011;11238;48.730;11.566;2023-07-16T14:14:20;3.08;;;1.50;;
22144;SDS011;11238;48.730;11.566;2023-07-16T14:16:47;3.03;;;1.50;;
22144;SDS011;11238;48.730;11.566;2023-07-16T14:19:13;3.05;;;1.40;;
22144;SDS011;11238;48.730;11.566;2023-07-16T14:22:01;3.47;;;1.60;;
22144;SDS011;11238;48.730;11.566;2023-07-16T14:24:27;2.20;;;1.30;;
22144;SDS011;11238;48.730;11.566;2023-07-16T14:26:53;2.17;;;1.40;;
22144;SDS011;11238;48.730;11.566;2023-07-16T14:29:19;2.67;;;1.63;;
22144;SDS011;11238;48.730;11.566;2023-07-16T14:31:44;4.20;;;1.40;;
22144;SDS011;11238;48.730;11.566;2023-07-16T14:34:10;1.63;;;1.50;;
22144;SDS011;11238;48.730;11.566;2023-07-16T14:36:36;1.40;;;1.30;;
22144;SDS011;11238;48.730;11.566;2023-07-16T14:39:01;2.45;;;1.40;;
22144;SDS011;11238;48.730;11.566;2023-07-16T14:45:00;2.17;;;1.52;;
22144;SDS011;11238;48.730;11.566;2023-07-16T14:47:29;3.88;;;1.83;;
22144;SDS011;11238;48.730;11.566;2023-07-16T14:53:07;2.25;;;1.40;;
22144;SDS011;11238;48.730;11.566;2023-07-16T14:55:34;2.28;;;1.33;;
22144;SDS011;11238;48.730;11.566;2023-07-16T14:57:59;3.38;;;1.33;;